sensor_id;sensor_type;location;lat;lon;timestamp;temperature;humidity
12119;DHT22;6123;48.864;9.200;2022-11-21T00:00:42;6.10;99.90
12119;DHT22;6123;48.864;9.200;2022-11-21T00:03:11;6.10;99.90
12119;DHT22;6123;48.864;9.200;2022-11-21T00:05:45;6.20;99.90
12119;DHT22;6123;48.864;9.200;2022-11-21T00:08:13;6.20;99.90
12119;DHT22;6123;48.864;9.200;2022-11-21T00:10:41;6.30;99.90
12119;DHT22;6123;48.864;9.200;2022-11-21T00:13:18;6.40;99.90
12119;DHT22;6123;48.864;9.200;2022-11-21T00:15:44;6.30;99.90
12119;DHT22;6123;48.864;9.200;2022-11-21T00:18:10;6.30;99.90
12119;DHT22;6123;48.864;9.200;2022-11-21T00:20:37;6.30;99.90
12119;DHT22;6123;48.864;9.200;2022-11-21T00:23:03;6.30;99.90
12119;DHT22;6123;48.864;9.200;2022-11-21T00:25:29;6.20;99.90
12119;DHT22;6123;48.864;9.200;2022-11-21T00:27:55;6.20;99.90
12119;DHT22;6123;48.864;9.200;2022-11-21T00:30:20;6.20;99.90
12119;DHT22;6123;48.864;9.200;2022-11-21T00:32:46;6.20;99.90
12119;DHT22;6123;48.864;9.200;2022-11-21T00:35:12;6.20;99.90
12119;DHT22;6123;48.864;9.200;2022-11-21T00:37:37;6.20;99.90
12119;DHT22;6123;48.864;9.200;2022-11-21T00:40:03;6.20;99.90
12119;DHT22;6123;48.864;9.200;2022-11-21T00:42:29;6.10;99.90
12119;DHT22;6123;48.864;9.200;2022-11-21T00:44:55;6.10;99.90
12119;DHT22;6123;48.864;9.200;2022-11-21T00:47:20;6.00;99.90
12119;DHT22;6123;48.864;9.200;2022-11-21T00:49:48;6.00;99.90
12119;DHT22;6123;48.864;9.200;2022-11-21T00:52:15;6.00;99.90
12119;DHT22;6123;48.864;9.200;2022-11-21T00:54:43;6.00;99.90
12119;DHT22;6123;48.864;9.200;2022-11-21T00:57:11;5.90;99.90
12119;DHT22;6123;48.864;9.200;2022-11-21T00:59:37;5.90;99.90
12119;DHT22;6123;48.864;9.200;2022-11-21T01:02:02;5.90;99.90
12119;DHT22;6123;48.864;9.200;2022-11-21T01:04:33;5.90;99.90
12119;DHT22;6123;48.864;9.200;2022-11-21T01:06:59;5.80;99.90
12119;DHT22;6123;48.864;9.200;2022-11-21T01:09:27;5.80;99.90
12119;DHT22;6123;48.864;9.200;2022-11-21T01:11:54;5.70;99.90
12119;DHT22;6123;48.864;9.200;2022-11-21T01:14:20;5.70;99.90
12119;DHT22;6123;48.864;9.200;2022-11-21T01:16:45;5.80;99.90
12119;DHT22;6123;48.864;9.200;2022-11-21T01:19:11;5.70;99.90
12119;DHT22;6123;48.864;9.200;2022-11-21T01:21:36;5.80;99.90
12119;DHT22;6123;48.864;9.200;2022-11-21T01:24:02;5.80;99.90
12119;DHT22;6123;48.864;9.200;2022-11-21T01:26:30;5.80;99.90
12119;DHT22;6123;48.864;9.200;2022-11-21T01:28:57;5.80;99.90
12119;DHT22;6123;48.864;9.200;2022-11-21T01:31:27;5.80;99.90
12119;DHT22;6123;48.864;9.200;2022-11-21T01:33:55;5.80;99.90
12119;DHT22;6123;48.864;9.200;2022-11-21T01:38:56;5.80;99.90
12119;DHT22;6123;48.864;9.200;2022-11-21T01:41:30;5.80;99.90
12119;DHT22;6123;48.864;9.200;2022-11-21T01:44:01;5.80;99.90
12119;DHT22;6123;48.864;9.200;2022-11-21T01:46:28;5.80;99.90
12119;DHT22;6123;48.864;9.200;2022-11-21T01:49:04;5.80;99.90
12119;DHT22;6123;48.864;9.200;2022-11-21T01:54:28;5.60;99.90
12119;DHT22;6123;48.864;9.200;2022-11-21T01:56:59;5.50;99.90
12119;DHT22;6123;48.864;9.200;2022-11-21T01:59:31;5.40;99.90
12119;DHT22;6123;48.864;9.200;2022-11-21T02:02:01;5.30;99.90
12119;DHT22;6123;48.864;9.200;2022-11-21T02:04:29;5.30;99.90
12119;DHT22;6123;48.864;9.200;2022-11-21T02:07:00;5.30;99.90
12119;DHT22;6123;48.864;9.200;2022-11-21T02:09:29;5.30;99.90
12119;DHT22;6123;48.864;9.200;2022-11-21T02:11:59;5.30;99.90
12119;DHT22;6123;48.864;9.200;2022-11-21T02:14:27;5.30;99.90
12119;DHT22;6123;48.864;9.200;2022-11-21T02:16:56;5.30;99.90
12119;DHT22;6123;48.864;9.200;2022-11-21T02:19:36;5.30;99.90
12119;DHT22;6123;48.864;9.200;2022-11-21T02:27:22;5.30;99.90
12119;DHT22;6123;48.864;9.200;2022-11-21T02:29:50;5.30;99.90
12119;DHT22;6123;48.864;9.200;2022-11-21T02:32:23;5.40;99.90
12119;DHT22;6123;48.864;9.200;2022-11-21T02:34:49;5.30;99.90
12119;DHT22;6123;48.864;9.200;2022-11-21T02:37:15;5.30;99.90
12119;DHT22;6123;48.864;9.200;2022-11-21T02:39:45;5.40;99.90
12119;DHT22;6123;48.864;9.200;2022-11-21T02:45:00;5.40;99.90
12119;DHT22;6123;48.864;9.200;2022-11-21T02:47:27;5.40;99.90
12119;DHT22;6123;48.864;9.200;2022-11-21T02:52:29;5.30;99.90
12119;DHT22;6123;48.864;9.200;2022-11-21T02:54:55;5.30;99.90
12119;DHT22;6123;48.864;9.200;2022-11-21T02:57:21;5.30;99.90
12119;DHT22;6123;48.864;9.200;2022-11-21T02:59:49;5.30;99.90
12119;DHT22;6123;48.864;9.200;2022-11-21T03:02:16;5.20;99.90
12119;DHT22;6123;48.864;9.200;2022-11-21T03:04:44;5.20;99.90
12119;DHT22;6123;48.864;9.200;2022-11-21T03:07:10;5.20;99.90
12119;DHT22;6123;48.864;9.200;2022-11-21T03:09:36;5.30;99.90
12119;DHT22;6123;48.864;9.200;2022-11-21T03:12:06;5.20;99.90
12119;DHT22;6123;48.864;9.200;2022-11-21T03:14:33;5.20;99.90
12119;DHT22;6123;48.864;9.200;2022-11-21T03:16:59;5.20;99.90
12119;DHT22;6123;48.864;9.200;2022-11-21T03:19:24;5.20;99.90
12119;DHT22;6123;48.864;9.200;2022-11-21T03:21:50;5.20;99.90
12119;DHT22;6123;48.864;9.200;2022-11-21T03:24:15;5.10;99.90
12119;DHT22;6123;48.864;9.200;2022-11-21T03:26:43;5.10;99.90
12119;DHT22;6123;48.864;9.200;2022-11-21T03:29:09;5.10;99.90
12119;DHT22;6123;48.864;9.200;2022-11-21T03:31:34;5.10;99.90
12119;DHT22;6123;48.864;9.200;2022-11-21T03:34:02;5.10;99.90
12119;DHT22;6123;48.864;9.200;2022-11-21T03:36:28;5.00;99.90
12119;DHT22;6123;48.864;9.200;2022-11-21T03:38:55;5.10;99.90
12119;DHT22;6123;48.864;9.200;2022-11-21T03:41:26;5.10;99.90
12119;DHT22;6123;48.864;9.200;2022-11-21T03:46:21;5.10;99.90
12119;DHT22;6123;48.864;9.200;2022-11-21T03:48:47;5.20;99.90
12119;DHT22;6123;48.864;9.200;2022-11-21T03:51:12;5.20;99.90
12119;DHT22;6123;48.864;9.200;2022-11-21T03:53:38;5.30;99.90
12119;DHT22;6123;48.864;9.200;2022-11-21T03:56:04;5.40;99.90
12119;DHT22;6123;48.864;9.200;2022-11-21T03:58:29;5.40;99.90
12119;DHT22;6123;48.864;9.200;2022-11-21T04:00:55;5.30;99.90
12119;DHT22;6123;48.864;9.200;2022-11-21T04:03:24;5.40;99.90
12119;DHT22;6123;48.864;9.200;2022-11-21T04:05:50;5.40;99.90
12119;DHT22;6123;48.864;9.200;2022-11-21T04:08:15;5.50;99.90
12119;DHT22;6123;48.864;9.200;2022-11-21T04:10:51;5.50;99.90
12119;DHT22;6123;48.864;9.200;2022-11-21T04:13:18;5.50;99.90
12119;DHT22;6123;48.864;9.200;2022-11-21T04:15:44;5.60;99.90
12119;DHT22;6123;48.864;9.200;2022-11-21T04:18:11;5.60;99.90
12119;DHT22;6123;48.864;9.200;2022-11-21T04:20:37;5.60;99.90
12119;DHT22;6123;48.864;9.200;2022-11-21T04:23:06;5.60;99.90
12119;DHT22;6123;48.864;9.200;2022-11-21T04:25:32;5.50;99.90
12119;DHT22;6123;48.864;9.200;2022-11-21T04:27:58;5.60;99.90
12119;DHT22;6123;48.864;9.200;2022-11-21T04:30:27;5.50;99.90
12119;DHT22;6123;48.864;9.200;2022-11-21T04:32:53;5.50;99.90
12119;DHT22;6123;48.864;9.200;2022-11-21T04:35:23;5.50;99.90
12119;DHT22;6123;48.864;9.200;2022-11-21T04:37:49;5.50;99.90
12119;DHT22;6123;48.864;9.200;2022-11-21T04:40:15;5.50;99.90
12119;DHT22;6123;48.864;9.200;2022-11-21T04:42:45;5.60;99.90
12119;DHT22;6123;48.864;9.200;2022-11-21T04:45:12;5.50;99.90
12119;DHT22;6123;48.864;9.200;2022-11-21T04:47:44;5.60;99.90
12119;DHT22;6123;48.864;9.200;2022-11-21T04:50:13;5.60;99.90
12119;DHT22;6123;48.864;9.200;2022-11-21T04:52:40;5.60;99.90
12119;DHT22;6123;48.864;9.200;2022-11-21T04:55:07;5.60;99.90
12119;DHT22;6123;48.864;9.200;2022-11-21T04:57:36;5.60;99.90
12119;DHT22;6123;48.864;9.200;2022-11-21T05:00:02;5.60;99.90
12119;DHT22;6123;48.864;9.200;2022-11-21T05:02:27;5.70;99.90
12119;DHT22;6123;48.864;9.200;2022-11-21T05:04:53;5.70;99.90
12119;DHT22;6123;48.864;9.200;2022-11-21T05:07:18;5.70;99.90
12119;DHT22;6123;48.864;9.200;2022-11-21T05:09:46;5.70;99.90
12119;DHT22;6123;48.864;9.200;2022-11-21T05:12:12;5.80;99.90
12119;DHT22;6123;48.864;9.200;2022-11-21T05:14:56;5.80;99.90
12119;DHT22;6123;48.864;9.200;2022-11-21T05:17:22;5.80;99.90
12119;DHT22;6123;48.864;9.200;2022-11-21T05:19:50;5.80;99.90
12119;DHT22;6123;48.864;9.200;2022-11-21T05:22:15;5.80;99.90
12119;DHT22;6123;48.864;9.200;2022-11-21T05:24:41;5.80;99.90
12119;DHT22;6123;48.864;9.200;2022-11-21T05:27:09;5.90;99.90
12119;DHT22;6123;48.864;9.200;2022-11-21T05:29:35;5.90;99.90
12119;DHT22;6123;48.864;9.200;2022-11-21T05:32:03;5.90;99.90
12119;DHT22;6123;48.864;9.200;2022-11-21T05:34:29;5.90;99.90
12119;DHT22;6123;48.864;9.200;2022-11-21T05:36:54;5.90;99.90
12119;DHT22;6123;48.864;9.200;2022-11-21T05:39:23;6.00;99.90
12119;DHT22;6123;48.864;9.200;2022-11-21T05:41:50;6.10;99.90
12119;DHT22;6123;48.864;9.200;2022-11-21T05:44:20;6.10;99.90
12119;DHT22;6123;48.864;9.200;2022-11-21T05:46:46;6.10;99.90
12119;DHT22;6123;48.864;9.200;2022-11-21T05:49:14;6.20;99.90
12119;DHT22;6123;48.864;9.200;2022-11-21T05:51:40;6.20;99.90
12119;DHT22;6123;48.864;9.200;2022-11-21T05:54:05;6.30;99.90
12119;DHT22;6123;48.864;9.200;2022-11-21T05:56:31;6.30;99.90
12119;DHT22;6123;48.864;9.200;2022-11-21T05:58:57;6.30;99.90
12119;DHT22;6123;48.864;9.200;2022-11-21T06:01:24;6.30;99.90
12119;DHT22;6123;48.864;9.200;2022-11-21T06:04:09;6.20;99.90
12119;DHT22;6123;48.864;9.200;2022-11-21T06:06:37;6.20;99.90
12119;DHT22;6123;48.864;9.200;2022-11-21T06:09:06;6.20;99.90
12119;DHT22;6123;48.864;9.200;2022-11-21T06:11:33;6.20;99.90
12119;DHT22;6123;48.864;9.200;2022-11-21T06:13:59;6.20;99.90
12119;DHT22;6123;48.864;9.200;2022-11-21T06:16:25;6.20;99.90
12119;DHT22;6123;48.864;9.200;2022-11-21T06:18:53;6.20;99.90
12119;DHT22;6123;48.864;9.200;2022-11-21T06:21:23;6.10;99.90
12119;DHT22;6123;48.864;9.200;2022-11-21T06:23:51;6.20;99.90
12119;DHT22;6123;48.864;9.200;2022-11-21T06:26:18;6.10;99.90
12119;DHT22;6123;48.864;9.200;2022-11-21T06:28:47;6.10;99.90
12119;DHT22;6123;48.864;9.200;2022-11-21T06:31:24;6.10;99.90
12119;DHT22;6123;48.864;9.200;2022-11-21T06:33:52;6.10;99.90
12119;DHT22;6123;48.864;9.200;2022-11-21T06:36:18;6.20;99.90
12119;DHT22;6123;48.864;9.200;2022-11-21T06:38:44;6.20;99.90
12119;DHT22;6123;48.864;9.200;2022-11-21T06:41:17;6.30;99.90
12119;DHT22;6123;48.864;9.200;2022-11-21T06:43:43;6.30;99.90
12119;DHT22;6123;48.864;9.200;2022-11-21T06:46:09;6.40;99.90
12119;DHT22;6123;48.864;9.200;2022-11-21T06:48:38;6.40;99.90
12119;DHT22;6123;48.864;9.200;2022-11-21T06:51:26;6.30;99.90
12119;DHT22;6123;48.864;9.200;2022-11-21T06:53:56;6.30;99.90
12119;DHT22;6123;48.864;9.200;2022-11-21T06:56:23;6.80;99.90
12119;DHT22;6123;48.864;9.200;2022-11-21T06:58:50;6.80;99.90
12119;DHT22;6123;48.864;9.200;2022-11-21T07:01:16;7.00;99.90
12119;DHT22;6123;48.864;9.200;2022-11-21T07:03:41;7.00;99.90
12119;DHT22;6123;48.864;9.200;2022-11-21T07:06:07;6.80;99.90
12119;DHT22;6123;48.864;9.200;2022-11-21T07:08:33;6.60;99.90
12119;DHT22;6123;48.864;9.200;2022-11-21T07:11:05;6.40;99.90
12119;DHT22;6123;48.864;9.200;2022-11-21T07:13:31;6.30;99.90
12119;DHT22;6123;48.864;9.200;2022-11-21T07:16:07;6.30;99.90
12119;DHT22;6123;48.864;9.200;2022-11-21T07:18:33;6.20;99.90
12119;DHT22;6123;48.864;9.200;2022-11-21T07:21:01;6.20;99.90
12119;DHT22;6123;48.864;9.200;2022-11-21T07:23:27;6.10;99.90
12119;DHT22;6123;48.864;9.200;2022-11-21T07:25:59;6.10;99.90
12119;DHT22;6123;48.864;9.200;2022-11-21T07:28:25;6.10;99.90
12119;DHT22;6123;48.864;9.200;2022-11-21T07:30:54;6.00;99.90
12119;DHT22;6123;48.864;9.200;2022-11-21T07:33:20;6.00;99.90
12119;DHT22;6123;48.864;9.200;2022-11-21T07:35:45;6.00;99.90
12119;DHT22;6123;48.864;9.200;2022-11-21T07:38:11;6.00;99.90
12119;DHT22;6123;48.864;9.200;2022-11-21T07:40:38;6.00;99.90
12119;DHT22;6123;48.864;9.200;2022-11-21T07:43:05;6.00;99.90
12119;DHT22;6123;48.864;9.200;2022-11-21T07:45:32;6.10;99.90
12119;DHT22;6123;48.864;9.200;2022-11-21T07:48:03;6.00;99.90
12119;DHT22;6123;48.864;9.200;2022-11-21T07:50:31;6.00;99.90
12119;DHT22;6123;48.864;9.200;2022-11-21T07:53:02;6.00;99.90
12119;DHT22;6123;48.864;9.200;2022-11-21T07:55:31;5.90;99.90
12119;DHT22;6123;48.864;9.200;2022-11-21T07:58:05;6.00;99.90
12119;DHT22;6123;48.864;9.200;2022-11-21T08:00:35;6.00;99.90
12119;DHT22;6123;48.864;9.200;2022-11-21T08:03:02;6.00;99.90
12119;DHT22;6123;48.864;9.200;2022-11-21T08:05:28;6.10;99.90
12119;DHT22;6123;48.864;9.200;2022-11-21T08:07:54;6.20;99.90
12119;DHT22;6123;48.864;9.200;2022-11-21T08:10:19;6.20;99.90
12119;DHT22;6123;48.864;9.200;2022-11-21T08:12:45;6.30;99.90
12119;DHT22;6123;48.864;9.200;2022-11-21T08:15:11;6.50;99.90
12119;DHT22;6123;48.864;9.200;2022-11-21T08:17:37;6.60;99.90
12119;DHT22;6123;48.864;9.200;2022-11-21T08:20:07;6.70;99.90
12119;DHT22;6123;48.864;9.200;2022-11-21T08:22:40;6.60;99.90
12119;DHT22;6123;48.864;9.200;2022-11-21T08:25:07;6.70;99.90
12119;DHT22;6123;48.864;9.200;2022-11-21T08:27:34;6.70;99.90
12119;DHT22;6123;48.864;9.200;2022-11-21T08:30:00;6.80;99.90
12119;DHT22;6123;48.864;9.200;2022-11-21T08:32:25;6.80;99.90
12119;DHT22;6123;48.864;9.200;2022-11-21T08:34:51;6.90;99.90
12119;DHT22;6123;48.864;9.200;2022-11-21T08:37:16;7.00;99.90
12119;DHT22;6123;48.864;9.200;2022-11-21T08:39:42;7.00;99.90
12119;DHT22;6123;48.864;9.200;2022-11-21T08:42:09;7.20;99.90
12119;DHT22;6123;48.864;9.200;2022-11-21T08:44:36;7.30;99.90
12119;DHT22;6123;48.864;9.200;2022-11-21T08:47:02;7.40;99.90
12119;DHT22;6123;48.864;9.200;2022-11-21T08:49:29;7.50;99.90
12119;DHT22;6123;48.864;9.200;2022-11-21T08:51:55;7.50;99.90
12119;DHT22;6123;48.864;9.200;2022-11-21T08:54:22;7.60;99.90
12119;DHT22;6123;48.864;9.200;2022-11-21T08:56:49;7.50;99.90
12119;DHT22;6123;48.864;9.200;2022-11-21T08:59:17;7.50;99.90
12119;DHT22;6123;48.864;9.200;2022-11-21T09:01:43;7.60;99.90
12119;DHT22;6123;48.864;9.200;2022-11-21T09:04:09;7.70;99.90
12119;DHT22;6123;48.864;9.200;2022-11-21T09:06:37;7.70;99.90
12119;DHT22;6123;48.864;9.200;2022-11-21T09:09:06;7.60;99.90
12119;DHT22;6123;48.864;9.200;2022-11-21T09:11:36;7.40;99.90
12119;DHT22;6123;48.864;9.200;2022-11-21T09:14:02;7.50;99.90
12119;DHT22;6123;48.864;9.200;2022-11-21T09:16:46;7.40;99.90
12119;DHT22;6123;48.864;9.200;2022-11-21T09:19:31;7.40;99.90
12119;DHT22;6123;48.864;9.200;2022-11-21T09:21:56;7.40;99.90
12119;DHT22;6123;48.864;9.200;2022-11-21T09:24:24;7.50;99.90
12119;DHT22;6123;48.864;9.200;2022-11-21T09:26:52;7.50;99.90
12119;DHT22;6123;48.864;9.200;2022-11-21T09:29:20;7.60;99.90
12119;DHT22;6123;48.864;9.200;2022-11-21T09:31:46;7.60;99.90
12119;DHT22;6123;48.864;9.200;2022-11-21T09:34:12;7.70;99.90
12119;DHT22;6123;48.864;9.200;2022-11-21T09:36:38;7.60;99.90
12119;DHT22;6123;48.864;9.200;2022-11-21T09:39:04;7.80;99.90
12119;DHT22;6123;48.864;9.200;2022-11-21T09:49:52;8.00;99.90
12119;DHT22;6123;48.864;9.200;2022-11-21T09:55:04;8.10;99.90
12119;DHT22;6123;48.864;9.200;2022-11-21T09:57:32;8.30;99.90
12119;DHT22;6123;48.864;9.200;2022-11-21T10:00:15;8.30;99.90
12119;DHT22;6123;48.864;9.200;2022-11-21T10:02:43;8.50;99.90
12119;DHT22;6123;48.864;9.200;2022-11-21T10:05:13;8.60;99.90
12119;DHT22;6123;48.864;9.200;2022-11-21T10:07:40;8.90;99.90
12119;DHT22;6123;48.864;9.200;2022-11-21T10:10:29;8.80;99.90
12119;DHT22;6123;48.864;9.200;2022-11-21T10:13:08;8.80;99.90
12119;DHT22;6123;48.864;9.200;2022-11-21T10:31:38;9.70;99.90
12119;DHT22;6123;48.864;9.200;2022-11-21T10:34:18;9.80;99.90
12119;DHT22;6123;48.864;9.200;2022-11-21T10:36:48;9.90;99.90
12119;DHT22;6123;48.864;9.200;2022-11-21T10:39:21;9.70;99.90
12119;DHT22;6123;48.864;9.200;2022-11-21T10:41:52;9.70;99.90
12119;DHT22;6123;48.864;9.200;2022-11-21T10:44:25;9.60;99.90
12119;DHT22;6123;48.864;9.200;2022-11-21T10:47:16;9.40;99.90
12119;DHT22;6123;48.864;9.200;2022-11-21T10:52:37;9.40;99.90
12119;DHT22;6123;48.864;9.200;2022-11-21T10:55:08;9.20;99.90
12119;DHT22;6123;48.864;9.200;2022-11-21T10:57:48;8.60;99.90
12119;DHT22;6123;48.864;9.200;2022-11-21T11:00:19;7.20;99.90
12119;DHT22;6123;48.864;9.200;2022-11-21T11:03:06;6.40;99.90
12119;DHT22;6123;48.864;9.200;2022-11-21T11:05:39;6.10;99.90
12119;DHT22;6123;48.864;9.200;2022-11-21T11:08:09;6.00;99.90
12119;DHT22;6123;48.864;9.200;2022-11-21T11:10:38;6.20;99.90
12119;DHT22;6123;48.864;9.200;2022-11-21T11:13:18;6.30;99.90
12119;DHT22;6123;48.864;9.200;2022-11-21T11:18:40;6.70;99.90
12119;DHT22;6123;48.864;9.200;2022-11-21T11:21:21;6.80;99.90
12119;DHT22;6123;48.864;9.200;2022-11-21T11:23:48;7.00;99.90
12119;DHT22;6123;48.864;9.200;2022-11-21T11:28:46;7.40;99.90
12119;DHT22;6123;48.864;9.200;2022-11-21T11:31:11;7.60;99.90
12119;DHT22;6123;48.864;9.200;2022-11-21T11:33:52;7.70;99.90
12119;DHT22;6123;48.864;9.200;2022-11-21T11:36:48;7.80;99.90
12119;DHT22;6123;48.864;9.200;2022-11-21T11:47:58;8.30;99.90
12119;DHT22;6123;48.864;9.200;2022-11-21T11:50:51;8.30;99.90
12119;DHT22;6123;48.864;9.200;2022-11-21T11:53:34;8.40;99.90
12119;DHT22;6123;48.864;9.200;2022-11-21T11:56:24;8.70;99.90
12119;DHT22;6123;48.864;9.200;2022-11-21T12:04:11;9.70;99.90
12119;DHT22;6123;48.864;9.200;2022-11-21T12:06:58;9.70;99.90
12119;DHT22;6123;48.864;9.200;2022-11-21T12:14:40;9.50;99.90
12119;DHT22;6123;48.864;9.200;2022-11-21T12:20:22;9.90;99.90
12119;DHT22;6123;48.864;9.200;2022-11-21T12:22:53;10.30;99.90
12119;DHT22;6123;48.864;9.200;2022-11-21T12:25:30;10.70;99.90
12119;DHT22;6123;48.864;9.200;2022-11-21T12:27:57;10.40;99.90
12119;DHT22;6123;48.864;9.200;2022-11-21T12:30:40;10.10;99.90
12119;DHT22;6123;48.864;9.200;2022-11-21T12:33:16;10.70;99.90
12119;DHT22;6123;48.864;9.200;2022-11-21T12:44:51;9.90;99.90
12119;DHT22;6123;48.864;9.200;2022-11-21T12:48:13;9.90;99.90
12119;DHT22;6123;48.864;9.200;2022-11-21T12:54:10;10.10;99.90
12119;DHT22;6123;48.864;9.200;2022-11-21T13:05:28;11.20;99.90
12119;DHT22;6123;48.864;9.200;2022-11-21T13:08:12;11.30;99.90
12119;DHT22;6123;48.864;9.200;2022-11-21T13:10:45;11.30;99.90
12119;DHT22;6123;48.864;9.200;2022-11-21T13:13:28;11.20;99.90
12119;DHT22;6123;48.864;9.200;2022-11-21T13:16:05;11.30;99.90
12119;DHT22;6123;48.864;9.200;2022-11-21T13:18:42;11.60;99.90
12119;DHT22;6123;48.864;9.200;2022-11-21T13:21:46;11.70;99.90
12119;DHT22;6123;48.864;9.200;2022-11-21T13:27:25;12.00;99.90
12119;DHT22;6123;48.864;9.200;2022-11-21T13:48:36;10.70;99.90
12119;DHT22;6123;48.864;9.200;2022-11-21T13:51:15;10.60;99.90
12119;DHT22;6123;48.864;9.200;2022-11-21T14:07:26;10.20;99.90
12119;DHT22;6123;48.864;9.200;2022-11-21T14:09:58;10.30;99.90
12119;DHT22;6123;48.864;9.200;2022-11-21T14:12:33;10.40;99.90
12119;DHT22;6123;48.864;9.200;2022-11-21T14:20:28;10.20;99.90
12119;DHT22;6123;48.864;9.200;2022-11-21T14:23:03;10.30;99.90
12119;DHT22;6123;48.864;9.200;2022-11-21T14:28:19;11.20;99.90
12119;DHT22;6123;48.864;9.200;2022-11-21T14:30:46;11.40;99.90
12119;DHT22;6123;48.864;9.200;2022-11-21T14:33:21;11.20;99.90
12119;DHT22;6123;48.864;9.200;2022-11-21T14:35:56;10.80;99.90
12119;DHT22;6123;48.864;9.200;2022-11-21T14:38:23;10.40;99.90
12119;DHT22;6123;48.864;9.200;2022-11-21T14:40:50;10.20;99.90
12119;DHT22;6123;48.864;9.200;2022-11-21T14:43:31;10.10;99.90
12119;DHT22;6123;48.864;9.200;2022-11-21T14:45:58;10.00;99.90
12119;DHT22;6123;48.864;9.200;2022-11-21T14:48:28;10.00;99.90
12119;DHT22;6123;48.864;9.200;2022-11-21T14:50:58;9.90;99.90
12119;DHT22;6123;48.864;9.200;2022-11-21T14:53:25;9.80;99.90
12119;DHT22;6123;48.864;9.200;2022-11-21T14:55:51;9.60;99.90
12119;DHT22;6123;48.864;9.200;2022-11-21T14:58:18;9.50;99.90
12119;DHT22;6123;48.864;9.200;2022-11-21T15:01:17;9.20;99.90
12119;DHT22;6123;48.864;9.200;2022-11-21T15:03:57;9.10;99.90
12119;DHT22;6123;48.864;9.200;2022-11-21T15:06:23;9.00;99.90
12119;DHT22;6123;48.864;9.200;2022-11-21T15:08:49;8.90;99.90
12119;DHT22;6123;48.864;9.200;2022-11-21T15:11:16;8.80;99.90
12119;DHT22;6123;48.864;9.200;2022-11-21T15:13:45;8.90;99.90
12119;DHT22;6123;48.864;9.200;2022-11-21T15:16:12;8.80;99.90
12119;DHT22;6123;48.864;9.200;2022-11-21T15:18:40;8.80;99.90
12119;DHT22;6123;48.864;9.200;2022-11-21T15:21:13;8.80;99.90
12119;DHT22;6123;48.864;9.200;2022-11-21T15:23:43;8.70;99.90
12119;DHT22;6123;48.864;9.200;2022-11-21T15:26:29;8.60;99.90
12119;DHT22;6123;48.864;9.200;2022-11-21T15:28:58;8.60;99.90
12119;DHT22;6123;48.864;9.200;2022-11-21T15:31:27;8.50;99.90
12119;DHT22;6123;48.864;9.200;2022-11-21T15:33:59;8.40;99.90
12119;DHT22;6123;48.864;9.200;2022-11-21T15:36:28;8.40;99.90
12119;DHT22;6123;48.864;9.200;2022-11-21T15:39:05;8.30;99.90
12119;DHT22;6123;48.864;9.200;2022-11-21T15:41:35;8.10;99.90
12119;DHT22;6123;48.864;9.200;2022-11-21T15:46:30;8.10;99.90
12119;DHT22;6123;48.864;9.200;2022-11-21T15:49:03;8.00;99.90
12119;DHT22;6123;48.864;9.200;2022-11-21T15:51:36;7.90;99.90
12119;DHT22;6123;48.864;9.200;2022-11-21T15:54:03;7.80;99.90
12119;DHT22;6123;48.864;9.200;2022-11-21T15:56:29;7.80;99.90
12119;DHT22;6123;48.864;9.200;2022-11-21T15:58:57;7.60;99.90
12119;DHT22;6123;48.864;9.200;2022-11-21T16:01:25;7.50;99.90
12119;DHT22;6123;48.864;9.200;2022-11-21T16:03:58;7.40;99.90
12119;DHT22;6123;48.864;9.200;2022-11-21T16:06:26;7.30;99.90
12119;DHT22;6123;48.864;9.200;2022-11-21T16:08:53;7.30;99.90
12119;DHT22;6123;48.864;9.200;2022-11-21T16:11:24;7.10;99.90
12119;DHT22;6123;48.864;9.200;2022-11-21T16:13:54;7.20;99.90
12119;DHT22;6123;48.864;9.200;2022-11-21T16:16:22;7.20;99.90
12119;DHT22;6123;48.864;9.200;2022-11-21T16:18:49;7.10;99.90
12119;DHT22;6123;48.864;9.200;2022-11-21T16:21:17;7.00;99.90
12119;DHT22;6123;48.864;9.200;2022-11-21T16:23:43;6.90;99.90
12119;DHT22;6123;48.864;9.200;2022-11-21T16:26:13;6.80;99.90
12119;DHT22;6123;48.864;9.200;2022-11-21T16:28:39;6.70;99.90
12119;DHT22;6123;48.864;9.200;2022-11-21T16:31:05;6.70;99.90
12119;DHT22;6123;48.864;9.200;2022-11-21T16:33:33;6.50;99.90
12119;DHT22;6123;48.864;9.200;2022-11-21T16:36:02;6.50;99.90
12119;DHT22;6123;48.864;9.200;2022-11-21T16:38:28;6.50;99.90
12119;DHT22;6123;48.864;9.200;2022-11-21T16:40:58;6.50;99.90
12119;DHT22;6123;48.864;9.200;2022-11-21T16:43:27;6.50;99.90
12119;DHT22;6123;48.864;9.200;2022-11-21T16:45:54;6.40;99.90
12119;DHT22;6123;48.864;9.200;2022-11-21T16:48:22;6.50;99.90
12119;DHT22;6123;48.864;9.200;2022-11-21T16:50:50;6.40;99.90
12119;DHT22;6123;48.864;9.200;2022-11-21T16:53:16;6.30;99.90
12119;DHT22;6123;48.864;9.200;2022-11-21T16:55:44;6.10;99.90
12119;DHT22;6123;48.864;9.200;2022-11-21T16:58:09;6.10;99.90
12119;DHT22;6123;48.864;9.200;2022-11-21T17:00:35;6.10;99.90
12119;DHT22;6123;48.864;9.200;2022-11-21T17:03:01;6.10;99.90
12119;DHT22;6123;48.864;9.200;2022-11-21T17:05:29;6.10;99.90
12119;DHT22;6123;48.864;9.200;2022-11-21T17:07:55;6.00;99.90
12119;DHT22;6123;48.864;9.200;2022-11-21T17:10:21;6.10;99.90
12119;DHT22;6123;48.864;9.200;2022-11-21T17:12:47;5.90;99.90
12119;DHT22;6123;48.864;9.200;2022-11-21T17:15:14;5.90;99.90
12119;DHT22;6123;48.864;9.200;2022-11-21T17:17:40;5.80;99.90
12119;DHT22;6123;48.864;9.200;2022-11-21T17:20:07;5.80;99.90
12119;DHT22;6123;48.864;9.200;2022-11-21T17:22:34;5.80;99.90
12119;DHT22;6123;48.864;9.200;2022-11-21T17:25:00;5.90;99.90
12119;DHT22;6123;48.864;9.200;2022-11-21T17:27:28;5.90;99.90
12119;DHT22;6123;48.864;9.200;2022-11-21T17:29:56;5.80;99.90
12119;DHT22;6123;48.864;9.200;2022-11-21T17:32:24;5.90;99.90
12119;DHT22;6123;48.864;9.200;2022-11-21T17:34:50;5.80;99.90
12119;DHT22;6123;48.864;9.200;2022-11-21T17:37:17;5.70;99.90
12119;DHT22;6123;48.864;9.200;2022-11-21T17:39:43;5.70;99.90
12119;DHT22;6123;48.864;9.200;2022-11-21T17:42:09;6.00;99.90
12119;DHT22;6123;48.864;9.200;2022-11-21T17:44:34;6.10;99.90
12119;DHT22;6123;48.864;9.200;2022-11-21T17:47:02;5.90;99.90
12119;DHT22;6123;48.864;9.200;2022-11-21T17:49:30;5.80;99.90
12119;DHT22;6123;48.864;9.200;2022-11-21T17:52:03;5.70;99.90
12119;DHT22;6123;48.864;9.200;2022-11-21T17:54:29;5.60;99.90
12119;DHT22;6123;48.864;9.200;2022-11-21T17:56:57;5.60;99.90
12119;DHT22;6123;48.864;9.200;2022-11-21T17:59:24;5.80;99.90
12119;DHT22;6123;48.864;9.200;2022-11-21T18:01:53;5.90;99.90
12119;DHT22;6123;48.864;9.200;2022-11-21T18:04:19;5.90;99.90
12119;DHT22;6123;48.864;9.200;2022-11-21T18:06:50;5.80;99.90
12119;DHT22;6123;48.864;9.200;2022-11-21T18:09:16;5.70;99.90
12119;DHT22;6123;48.864;9.200;2022-11-21T18:11:43;5.70;99.90
12119;DHT22;6123;48.864;9.200;2022-11-21T18:14:11;5.60;99.90
12119;DHT22;6123;48.864;9.200;2022-11-21T18:16:38;5.60;99.90
12119;DHT22;6123;48.864;9.200;2022-11-21T18:19:10;5.60;99.90
12119;DHT22;6123;48.864;9.200;2022-11-21T18:21:37;5.60;99.90
12119;DHT22;6123;48.864;9.200;2022-11-21T18:24:03;5.60;99.90
12119;DHT22;6123;48.864;9.200;2022-11-21T18:26:35;5.60;99.90
12119;DHT22;6123;48.864;9.200;2022-11-21T18:29:03;5.50;99.90
12119;DHT22;6123;48.864;9.200;2022-11-21T18:31:31;5.70;99.90
12119;DHT22;6123;48.864;9.200;2022-11-21T18:34:01;5.60;99.90
12119;DHT22;6123;48.864;9.200;2022-11-21T18:36:28;5.70;99.90